Observations for BIRMINGHAM AIRPORT, United Kingdom (EGBB)

EGBB 191950Z 26004KT CAVOK 09/07 Q1003  
EGBB 191920Z 24004KT CAVOK 10/07 Q1003  
EGBB 191850Z 24004KT 9999 FEW036 10/07 Q1002
EGBB 191820Z 24004KT CAVOK 10/07 Q1002  
EGBB 191750Z VRB03KT CAVOK 10/08 Q1002  
EGBB 191720Z 24004KT 9999 SCT033 11/08 Q1002
EGBB 191650Z VRB03KT 9999 BKN037 11/08 Q1001
EGBB 191620Z 24004KT 210V290 9999 SCT046 11/08 Q1001
EGBB 191550Z 24006KT 200V260 9999 VCSH SCT046 11/07 Q1000   
EGBB 191520Z 26005KT 230V290 9999 VCSH FEW018CB SCT033 11/08 Q1000  
EGBB 191450Z 24004KT 190V280 9999 FEW015 SCT036 11/09 Q1000 
EGBB 191420Z 24005KT 210V280 9999 -SHRA BKN028 13/07 Q1000  
EGBB 191350Z 24006KT 210V280 9999 FEW024 SCT032 13/07 Q0999 
EGBB 191320Z 25007KT 210V290 9999 FEW024 SCT030 14/07 Q0999 
EGBB 191250Z 25007KT 190V300 9999 SCT027 13/07 Q0999
EGBB 191220Z 26005KT 210V310 9999 SCT022 13/08 Q0999
EGBB 191150Z 25006KT 220V280 9999 SCT049 12/07 Q0999
EGBB 191120Z 24006KT 200V280 9999 SCT018 11/07 Q0999
EGBB 191050Z 26007KT 9999 SCT022 11/07 Q0999
EGBB 191020Z 26007KT 230V300 9999 SCT022 11/07 Q0998
EGBB 190950Z 26007KT 210V300 9999 FEW018 11/07 Q0998
EGBB 190920Z 26006KT 230V300 9999 FEW049 10/08 Q0998
EGBB 190850Z 25006KT 220V290 9999 SCT042 10/08 Q0998
EGBB 190820Z 25006KT 210V290 9999 FEW007 09/08 Q0997
EGBB 190750Z 22006KT 190V250 9999 SCT006 08/08 Q0997
EGBB 190720Z 23006KT 190V260 9999 SCT007 08/07 Q0997
EGBB 190650Z 22006KT 200V260 9999 SCT007 08/07 Q0996
EGBB 190620Z 21006KT 9999 SCT007 08/08 Q0996
EGBB 190550Z 22005KT 180V250 9999 BKN008 08/08 Q0996
EGBB 190520Z 21005KT 160V250 9999 SCT007 08/08 Q0996
EGBB 190450Z 22007KT 9999 SCT007 09/08 Q0996
EGBB 190420Z 22007KT 180V240 9999 BKN007 09/08 Q0996
EGBB 190350Z 20007KT 9999 OVC005 09/08 Q0996
EGBB 190320Z 20005KT 170V240 9999 BKN007 08/08 Q0996
EGBB 190250Z 20006KT 150V220 9999 SCT007 09/08 Q0996
EGBB 190220Z 19005KT 9999 FEW009 08/08 Q0996
EGBB 190150Z 19006KT 160V220 9999 SCT006 09/08 Q0996
EGBB 190120Z 18005KT 140V210 CAVOK 09/08 Q0996  
EGBB 190050Z 19007KT 9999 SCT007 09/08 Q0996
EGBB 190020Z 19007KT 160V230 9999 SCT008 09/08 Q0996
EGBB 182350Z 19007KT 9999 FEW007 SCT011 09/08 Q0996 
EGBB 182320Z 19009KT 9999 FEW012 09/08 Q0996
EGBB 182250Z 19009KT 160V220 9999 FEW011 10/08 Q0996
EGBB 182220Z 19008KT 9999 SCT015 10/08 Q0996
EGBB 182150Z 19007KT 150V220 9999 FEW012 SCT030 10/08 Q0996 
EGBB 182120Z 19008KT 160V230 9999 FEW011 SCT017 BKN032 10/08 Q0996  
EGBB 182050Z 19010KT 170V230 9999 FEW016 10/08 Q0996
EGBB 182020Z 18008KT 9999 -SHRA SCT012 BKN017 10/08 Q0996   
EGBB 181950Z 19009KT 150V210 9999 FEW022 10/08 Q0996
EGBB 181920Z 19009KT 9999 FEW048 10/08 Q0995